sensor_id;sensor_type;location;lat;lon;timestamp;P1;durP1;ratioP1;P2;durP2;ratioP2
6414;SDS011;3240;48.790;9.210;2022-12-16T00:00:16;51.43;;;22.97;;
6414;SDS011;3240;48.790;9.210;2022-12-16T00:02:44;46.40;;;23.23;;
6414;SDS011;3240;48.790;9.210;2022-12-16T00:05:12;50.97;;;23.80;;
6414;SDS011;3240;48.790;9.210;2022-12-16T00:07:40;45.27;;;22.23;;
6414;SDS011;3240;48.790;9.210;2022-12-16T00:10:08;44.90;;;21.40;;
6414;SDS011;3240;48.790;9.210;2022-12-16T00:12:36;51.23;;;24.10;;
6414;SDS011;3240;48.790;9.210;2022-12-16T00:15:04;54.53;;;22.90;;
6414;SDS011;3240;48.790;9.210;2022-12-16T00:17:32;50.07;;;22.73;;
6414;SDS011;3240;48.790;9.210;2022-12-16T00:20:01;43.53;;;21.33;;
6414;SDS011;3240;48.790;9.210;2022-12-16T00:22:28;43.83;;;21.33;;
6414;SDS011;3240;48.790;9.210;2022-12-16T00:24:56;50.33;;;21.70;;
6414;SDS011;3240;48.790;9.210;2022-12-16T00:27:24;54.73;;;22.47;;
6414;SDS011;3240;48.790;9.210;2022-12-16T00:29:52;48.50;;;21.67;;
6414;SDS011;3240;48.790;9.210;2022-12-16T00:32:20;48.50;;;22.20;;
6414;SDS011;3240;48.790;9.210;2022-12-16T00:34:49;47.40;;;22.53;;
6414;SDS011;3240;48.790;9.210;2022-12-16T00:37:17;48.70;;;23.00;;
6414;SDS011;3240;48.790;9.210;2022-12-16T00:39:45;49.63;;;22.10;;
6414;SDS011;3240;48.790;9.210;2022-12-16T00:42:13;51.90;;;22.70;;
6414;SDS011;3240;48.790;9.210;2022-12-16T00:44:41;52.50;;;22.30;;
6414;SDS011;3240;48.790;9.210;2022-12-16T00:47:09;48.73;;;21.83;;
6414;SDS011;3240;48.790;9.210;2022-12-16T00:49:37;48.53;;;22.40;;
6414;SDS011;3240;48.790;9.210;2022-12-16T00:52:05;51.53;;;22.57;;
6414;SDS011;3240;48.790;9.210;2022-12-16T00:54:33;51.90;;;23.50;;
6414;SDS011;3240;48.790;9.210;2022-12-16T00:57:01;47.87;;;22.30;;
6414;SDS011;3240;48.790;9.210;2022-12-16T00:59:29;52.23;;;23.27;;
6414;SDS011;3240;48.790;9.210;2022-12-16T01:01:57;51.07;;;24.10;;
6414;SDS011;3240;48.790;9.210;2022-12-16T01:04:25;46.70;;;21.20;;
6414;SDS011;3240;48.790;9.210;2022-12-16T01:06:53;51.17;;;22.60;;
6414;SDS011;3240;48.790;9.210;2022-12-16T01:09:21;47.50;;;23.97;;
6414;SDS011;3240;48.790;9.210;2022-12-16T01:11:49;44.93;;;22.47;;
6414;SDS011;3240;48.790;9.210;2022-12-16T01:14:17;47.50;;;22.30;;
6414;SDS011;3240;48.790;9.210;2022-12-16T01:16:45;51.77;;;22.53;;
6414;SDS011;3240;48.790;9.210;2022-12-16T01:19:13;57.17;;;24.77;;
6414;SDS011;3240;48.790;9.210;2022-12-16T01:21:41;52.97;;;23.33;;
6414;SDS011;3240;48.790;9.210;2022-12-16T01:24:09;50.37;;;23.20;;
6414;SDS011;3240;48.790;9.210;2022-12-16T01:26:37;48.80;;;21.70;;
6414;SDS011;3240;48.790;9.210;2022-12-16T01:29:05;52.90;;;22.80;;
6414;SDS011;3240;48.790;9.210;2022-12-16T01:31:33;48.93;;;22.77;;
6414;SDS011;3240;48.790;9.210;2022-12-16T01:34:01;56.60;;;23.27;;
6414;SDS011;3240;48.790;9.210;2022-12-16T01:36:29;48.13;;;22.60;;
6414;SDS011;3240;48.790;9.210;2022-12-16T01:38:57;51.67;;;23.80;;
6414;SDS011;3240;48.790;9.210;2022-12-16T01:41:25;53.77;;;22.80;;
6414;SDS011;3240;48.790;9.210;2022-12-16T01:44:10;51.20;;;22.10;;
6414;SDS011;3240;48.790;9.210;2022-12-16T01:46:22;49.23;;;21.03;;
6414;SDS011;3240;48.790;9.210;2022-12-16T01:48:51;58.80;;;24.27;;
6414;SDS011;3240;48.790;9.210;2022-12-16T01:51:20;50.57;;;22.50;;
6414;SDS011;3240;48.790;9.210;2022-12-16T01:53:46;51.57;;;22.00;;
6414;SDS011;3240;48.790;9.210;2022-12-16T01:56:14;49.23;;;23.00;;
6414;SDS011;3240;48.790;9.210;2022-12-16T01:58:42;56.50;;;23.30;;
6414;SDS011;3240;48.790;9.210;2022-12-16T02:01:11;45.40;;;22.97;;
6414;SDS011;3240;48.790;9.210;2022-12-16T02:03:38;47.67;;;22.17;;
6414;SDS011;3240;48.790;9.210;2022-12-16T02:06:06;49.30;;;21.83;;
6414;SDS011;3240;48.790;9.210;2022-12-16T02:08:35;49.57;;;22.00;;
6414;SDS011;3240;48.790;9.210;2022-12-16T02:11:06;54.73;;;22.90;;
6414;SDS011;3240;48.790;9.210;2022-12-16T02:13:43;47.93;;;21.77;;
6414;SDS011;3240;48.790;9.210;2022-12-16T02:21:32;51.20;;;21.80;;
6414;SDS011;3240;48.790;9.210;2022-12-16T02:26:40;50.40;;;21.23;;
6414;SDS011;3240;48.790;9.210;2022-12-16T02:29:07;46.13;;;24.27;;
6414;SDS011;3240;48.790;9.210;2022-12-16T02:31:35;51.03;;;22.07;;
6414;SDS011;3240;48.790;9.210;2022-12-16T02:39:20;45.30;;;21.30;;
6414;SDS011;3240;48.790;9.210;2022-12-16T02:41:58;53.67;;;23.17;;
6414;SDS011;3240;48.790;9.210;2022-12-16T02:44:30;49.50;;;22.90;;
6414;SDS011;3240;48.790;9.210;2022-12-16T02:46:54;45.77;;;21.30;;
6414;SDS011;3240;48.790;9.210;2022-12-16T02:49:40;50.93;;;22.87;;
6414;SDS011;3240;48.790;9.210;2022-12-16T02:52:05;46.93;;;22.30;;
6414;SDS011;3240;48.790;9.210;2022-12-16T02:54:33;52.47;;;22.77;;
6414;SDS011;3240;48.790;9.210;2022-12-16T02:57:10;51.67;;;22.93;;
6414;SDS011;3240;48.790;9.210;2022-12-16T02:59:36;50.60;;;22.10;;
6414;SDS011;3240;48.790;9.210;2022-12-16T03:02:10;43.77;;;22.87;;
6414;SDS011;3240;48.790;9.210;2022-12-16T03:04:38;43.37;;;21.47;;
6414;SDS011;3240;48.790;9.210;2022-12-16T03:07:06;50.30;;;22.40;;
6414;SDS011;3240;48.790;9.210;2022-12-16T03:09:33;53.80;;;23.53;;
6414;SDS011;3240;48.790;9.210;2022-12-16T03:12:02;52.20;;;24.10;;
6414;SDS011;3240;48.790;9.210;2022-12-16T03:14:30;56.23;;;22.00;;
6414;SDS011;3240;48.790;9.210;2022-12-16T03:16:57;48.87;;;21.47;;
6414;SDS011;3240;48.790;9.210;2022-12-16T03:19:25;49.58;;;23.60;;
6414;SDS011;3240;48.790;9.210;2022-12-16T03:21:56;46.80;;;22.80;;
6414;SDS011;3240;48.790;9.210;2022-12-16T03:24:22;51.80;;;23.63;;
6414;SDS011;3240;48.790;9.210;2022-12-16T03:28:00;49.20;;;21.33;;
6414;SDS011;3240;48.790;9.210;2022-12-16T03:29:40;49.77;;;22.27;;
6414;SDS011;3240;48.790;9.210;2022-12-16T03:32:08;48.13;;;20.60;;
6414;SDS011;3240;48.790;9.210;2022-12-16T03:34:40;49.63;;;22.83;;
6414;SDS011;3240;48.790;9.210;2022-12-16T03:37:07;46.07;;;21.20;;
6414;SDS011;3240;48.790;9.210;2022-12-16T03:39:38;45.33;;;20.27;;
6414;SDS011;3240;48.790;9.210;2022-12-16T03:42:03;44.53;;;21.27;;
6414;SDS011;3240;48.790;9.210;2022-12-16T03:44:31;58.40;;;21.70;;
6414;SDS011;3240;48.790;9.210;2022-12-16T03:46:59;45.67;;;20.47;;
6414;SDS011;3240;48.790;9.210;2022-12-16T03:49:27;44.23;;;21.33;;
6414;SDS011;3240;48.790;9.210;2022-12-16T03:51:55;47.00;;;21.30;;
6414;SDS011;3240;48.790;9.210;2022-12-16T03:54:23;51.67;;;22.80;;
6414;SDS011;3240;48.790;9.210;2022-12-16T03:56:52;41.53;;;20.43;;
6414;SDS011;3240;48.790;9.210;2022-12-16T03:59:19;37.77;;;19.00;;
6414;SDS011;3240;48.790;9.210;2022-12-16T04:01:48;46.17;;;19.43;;
6414;SDS011;3240;48.790;9.210;2022-12-16T04:04:16;46.90;;;20.40;;
6414;SDS011;3240;48.790;9.210;2022-12-16T04:06:44;40.07;;;18.60;;
6414;SDS011;3240;48.790;9.210;2022-12-16T04:09:12;46.30;;;19.07;;
6414;SDS011;3240;48.790;9.210;2022-12-16T04:11:40;44.33;;;18.70;;
6414;SDS011;3240;48.790;9.210;2022-12-16T04:14:13;41.63;;;18.50;;
6414;SDS011;3240;48.790;9.210;2022-12-16T04:16:47;35.23;;;18.07;;
6414;SDS011;3240;48.790;9.210;2022-12-16T04:19:22;44.07;;;19.77;;
6414;SDS011;3240;48.790;9.210;2022-12-16T04:21:55;38.97;;;18.00;;
6414;SDS011;3240;48.790;9.210;2022-12-16T04:24:29;42.60;;;17.13;;
6414;SDS011;3240;48.790;9.210;2022-12-16T04:26:57;44.57;;;19.57;;
6414;SDS011;3240;48.790;9.210;2022-12-16T04:29:31;34.30;;;17.00;;
6414;SDS011;3240;48.790;9.210;2022-12-16T04:31:59;38.10;;;17.67;;
6414;SDS011;3240;48.790;9.210;2022-12-16T04:34:27;36.80;;;16.10;;
6414;SDS011;3240;48.790;9.210;2022-12-16T04:36:57;40.00;;;17.23;;
6414;SDS011;3240;48.790;9.210;2022-12-16T04:39:29;38.10;;;17.63;;
6414;SDS011;3240;48.790;9.210;2022-12-16T04:42:03;42.00;;;16.63;;
6414;SDS011;3240;48.790;9.210;2022-12-16T04:44:37;42.87;;;18.87;;
6414;SDS011;3240;48.790;9.210;2022-12-16T04:47:11;35.47;;;15.43;;
6414;SDS011;3240;48.790;9.210;2022-12-16T04:49:45;36.17;;;16.40;;
6414;SDS011;3240;48.790;9.210;2022-12-16T04:52:19;33.03;;;16.20;;
6414;SDS011;3240;48.790;9.210;2022-12-16T04:54:53;34.25;;;16.33;;
6414;SDS011;3240;48.790;9.210;2022-12-16T04:57:27;37.70;;;16.90;;
6414;SDS011;3240;48.790;9.210;2022-12-16T05:00:02;36.60;;;15.63;;
6414;SDS011;3240;48.790;9.210;2022-12-16T05:02:36;36.10;;;17.07;;
6414;SDS011;3240;48.790;9.210;2022-12-16T05:05:10;30.30;;;15.30;;
6414;SDS011;3240;48.790;9.210;2022-12-16T05:07:59;39.50;;;16.67;;
6414;SDS011;3240;48.790;9.210;2022-12-16T05:10:33;35.27;;;16.00;;
6414;SDS011;3240;48.790;9.210;2022-12-16T05:13:07;38.77;;;16.17;;
6414;SDS011;3240;48.790;9.210;2022-12-16T05:15:41;35.43;;;16.27;;
6414;SDS011;3240;48.790;9.210;2022-12-16T05:18:15;33.60;;;17.70;;
6414;SDS011;3240;48.790;9.210;2022-12-16T05:20:49;39.67;;;18.60;;
6414;SDS011;3240;48.790;9.210;2022-12-16T05:23:23;32.70;;;16.33;;
6414;SDS011;3240;48.790;9.210;2022-12-16T05:25:57;39.33;;;17.10;;
6414;SDS011;3240;48.790;9.210;2022-12-16T05:28:31;40.57;;;17.67;;
6414;SDS011;3240;48.790;9.210;2022-12-16T05:31:06;32.37;;;15.93;;
6414;SDS011;3240;48.790;9.210;2022-12-16T05:33:40;37.50;;;17.87;;
6414;SDS011;3240;48.790;9.210;2022-12-16T05:36:14;35.30;;;16.10;;
6414;SDS011;3240;48.790;9.210;2022-12-16T05:38:48;40.53;;;18.03;;
6414;SDS011;3240;48.790;9.210;2022-12-16T05:41:22;34.00;;;15.70;;
6414;SDS011;3240;48.790;9.210;2022-12-16T05:43:56;42.63;;;18.13;;
6414;SDS011;3240;48.790;9.210;2022-12-16T05:46:30;40.00;;;15.70;;
6414;SDS011;3240;48.790;9.210;2022-12-16T05:49:04;38.83;;;17.30;;
6414;SDS011;3240;48.790;9.210;2022-12-16T05:51:38;32.27;;;15.13;;
6414;SDS011;3240;48.790;9.210;2022-12-16T05:54:13;34.73;;;16.10;;
6414;SDS011;3240;48.790;9.210;2022-12-16T05:56:47;37.93;;;16.87;;
6414;SDS011;3240;48.790;9.210;2022-12-16T05:59:21;34.33;;;15.33;;
6414;SDS011;3240;48.790;9.210;2022-12-16T06:01:55;27.53;;;14.60;;
6414;SDS011;3240;48.790;9.210;2022-12-16T06:04:29;32.83;;;14.40;;
6414;SDS011;3240;48.790;9.210;2022-12-16T06:07:03;30.73;;;15.20;;
6414;SDS011;3240;48.790;9.210;2022-12-16T06:09:37;29.73;;;15.17;;
6414;SDS011;3240;48.790;9.210;2022-12-16T06:12:11;31.67;;;14.33;;
6414;SDS011;3240;48.790;9.210;2022-12-16T06:14:45;30.57;;;13.70;;
6414;SDS011;3240;48.790;9.210;2022-12-16T06:17:20;28.40;;;14.13;;
6414;SDS011;3240;48.790;9.210;2022-12-16T06:19:53;29.10;;;14.03;;
6414;SDS011;3240;48.790;9.210;2022-12-16T06:22:27;29.20;;;13.70;;
6414;SDS011;3240;48.790;9.210;2022-12-16T06:25:02;25.73;;;13.13;;
6414;SDS011;3240;48.790;9.210;2022-12-16T06:27:36;30.53;;;13.70;;
6414;SDS011;3240;48.790;9.210;2022-12-16T06:30:10;32.50;;;15.02;;
6414;SDS011;3240;48.790;9.210;2022-12-16T06:32:44;29.13;;;13.03;;
6414;SDS011;3240;48.790;9.210;2022-12-16T06:35:18;30.47;;;14.40;;
6414;SDS011;3240;48.790;9.210;2022-12-16T06:37:52;34.70;;;15.50;;
6414;SDS011;3240;48.790;9.210;2022-12-16T06:40:26;27.97;;;13.77;;
6414;SDS011;3240;48.790;9.210;2022-12-16T06:43:00;29.97;;;13.93;;
6414;SDS011;3240;48.790;9.210;2022-12-16T06:45:34;31.53;;;14.30;;
6414;SDS011;3240;48.790;9.210;2022-12-16T06:48:08;26.40;;;13.60;;
6414;SDS011;3240;48.790;9.210;2022-12-16T06:50:42;29.53;;;14.70;;
6414;SDS011;3240;48.790;9.210;2022-12-16T06:53:16;32.90;;;14.47;;
6414;SDS011;3240;48.790;9.210;2022-12-16T06:55:50;29.13;;;13.20;;
6414;SDS011;3240;48.790;9.210;2022-12-16T06:58:24;29.20;;;14.50;;
6414;SDS011;3240;48.790;9.210;2022-12-16T07:00:59;32.80;;;13.73;;
6414;SDS011;3240;48.790;9.210;2022-12-16T07:03:33;32.20;;;13.20;;
6414;SDS011;3240;48.790;9.210;2022-12-16T07:06:07;30.90;;;14.77;;
6414;SDS011;3240;48.790;9.210;2022-12-16T07:08:41;29.67;;;14.20;;
6414;SDS011;3240;48.790;9.210;2022-12-16T07:11:15;35.40;;;14.23;;
6414;SDS011;3240;48.790;9.210;2022-12-16T07:13:49;34.83;;;15.10;;
6414;SDS011;3240;48.790;9.210;2022-12-16T07:16:23;24.73;;;13.13;;
6414;SDS011;3240;48.790;9.210;2022-12-16T07:18:57;31.83;;;14.83;;
6414;SDS011;3240;48.790;9.210;2022-12-16T07:21:31;36.93;;;14.73;;
6414;SDS011;3240;48.790;9.210;2022-12-16T07:24:05;29.80;;;14.63;;
6414;SDS011;3240;48.790;9.210;2022-12-16T07:26:39;25.90;;;13.00;;
6414;SDS011;3240;48.790;9.210;2022-12-16T07:29:13;29.60;;;14.77;;
6414;SDS011;3240;48.790;9.210;2022-12-16T07:31:47;29.53;;;13.90;;
6414;SDS011;3240;48.790;9.210;2022-12-16T07:34:22;27.73;;;13.70;;
6414;SDS011;3240;48.790;9.210;2022-12-16T07:36:56;26.40;;;13.10;;
6414;SDS011;3240;48.790;9.210;2022-12-16T07:39:30;24.03;;;12.47;;
6414;SDS011;3240;48.790;9.210;2022-12-16T07:42:04;26.20;;;11.83;;
6414;SDS011;3240;48.790;9.210;2022-12-16T07:44:38;26.17;;;12.53;;
6414;SDS011;3240;48.790;9.210;2022-12-16T07:47:12;28.23;;;12.77;;
6414;SDS011;3240;48.790;9.210;2022-12-16T07:49:46;27.50;;;11.93;;
6414;SDS011;3240;48.790;9.210;2022-12-16T07:52:20;27.00;;;12.00;;
6414;SDS011;3240;48.790;9.210;2022-12-16T07:54:54;27.67;;;12.03;;
6414;SDS011;3240;48.790;9.210;2022-12-16T07:57:28;25.77;;;12.60;;
6414;SDS011;3240;48.790;9.210;2022-12-16T08:00:03;25.90;;;13.43;;
6414;SDS011;3240;48.790;9.210;2022-12-16T08:02:37;27.17;;;12.20;;
6414;SDS011;3240;48.790;9.210;2022-12-16T08:05:11;23.27;;;11.43;;
6414;SDS011;3240;48.790;9.210;2022-12-16T08:07:45;29.03;;;13.27;;
6414;SDS011;3240;48.790;9.210;2022-12-16T08:10:19;24.33;;;11.70;;
6414;SDS011;3240;48.790;9.210;2022-12-16T08:12:59;24.50;;;11.90;;
6414;SDS011;3240;48.790;9.210;2022-12-16T08:15:33;24.70;;;12.00;;
6414;SDS011;3240;48.790;9.210;2022-12-16T08:18:07;26.90;;;12.03;;
6414;SDS011;3240;48.790;9.210;2022-12-16T08:20:41;25.33;;;12.13;;
6414;SDS011;3240;48.790;9.210;2022-12-16T08:23:15;29.70;;;12.20;;
6414;SDS011;3240;48.790;9.210;2022-12-16T08:25:49;27.27;;;11.90;;
6414;SDS011;3240;48.790;9.210;2022-12-16T08:28:33;27.33;;;12.40;;
6414;SDS011;3240;48.790;9.210;2022-12-16T08:31:07;25.20;;;12.20;;
6414;SDS011;3240;48.790;9.210;2022-12-16T08:33:41;24.00;;;11.73;;
6414;SDS011;3240;48.790;9.210;2022-12-16T08:36:15;22.90;;;12.47;;
6414;SDS011;3240;48.790;9.210;2022-12-16T08:38:49;24.03;;;11.83;;
6414;SDS011;3240;48.790;9.210;2022-12-16T08:41:23;28.80;;;11.93;;
6414;SDS011;3240;48.790;9.210;2022-12-16T08:43:57;24.07;;;11.87;;
6414;SDS011;3240;48.790;9.210;2022-12-16T08:46:32;22.60;;;11.63;;
6414;SDS011;3240;48.790;9.210;2022-12-16T08:49:06;31.03;;;12.57;;
6414;SDS011;3240;48.790;9.210;2022-12-16T08:51:40;23.57;;;12.00;;
6414;SDS011;3240;48.790;9.210;2022-12-16T08:54:14;27.30;;;11.90;;
6414;SDS011;3240;48.790;9.210;2022-12-16T08:56:48;19.43;;;9.97;;
6414;SDS011;3240;48.790;9.210;2022-12-16T08:59:22;24.00;;;12.00;;
6414;SDS011;3240;48.790;9.210;2022-12-16T09:01:56;22.60;;;10.50;;
6414;SDS011;3240;48.790;9.210;2022-12-16T09:04:30;23.60;;;11.90;;
6414;SDS011;3240;48.790;9.210;2022-12-16T09:07:04;22.70;;;10.77;;
6414;SDS011;3240;48.790;9.210;2022-12-16T09:09:38;22.33;;;10.43;;
6414;SDS011;3240;48.790;9.210;2022-12-16T09:12:12;21.63;;;10.60;;
6414;SDS011;3240;48.790;9.210;2022-12-16T09:14:46;17.30;;;9.70;;
6414;SDS011;3240;48.790;9.210;2022-12-16T09:17:21;18.97;;;10.03;;
6414;SDS011;3240;48.790;9.210;2022-12-16T09:19:55;19.87;;;10.00;;
6414;SDS011;3240;48.790;9.210;2022-12-16T09:22:29;28.07;;;10.93;;
6414;SDS011;3240;48.790;9.210;2022-12-16T09:25:03;23.83;;;10.13;;
6414;SDS011;3240;48.790;9.210;2022-12-16T09:27:37;23.53;;;10.03;;
6414;SDS011;3240;48.790;9.210;2022-12-16T09:30:11;18.90;;;10.00;;
6414;SDS011;3240;48.790;9.210;2022-12-16T09:32:45;16.83;;;9.50;;
6414;SDS011;3240;48.790;9.210;2022-12-16T09:35:19;18.00;;;9.47;;
6414;SDS011;3240;48.790;9.210;2022-12-16T09:37:53;18.40;;;9.75;;
6414;SDS011;3240;48.790;9.210;2022-12-16T09:40:27;22.23;;;10.00;;
6414;SDS011;3240;48.790;9.210;2022-12-16T09:43:07;18.27;;;9.17;;
6414;SDS011;3240;48.790;9.210;2022-12-16T09:45:42;17.87;;;8.70;;
6414;SDS011;3240;48.790;9.210;2022-12-16T09:48:21;17.77;;;9.57;;
6414;SDS011;3240;48.790;9.210;2022-12-16T09:50:53;23.47;;;9.63;;
6414;SDS011;3240;48.790;9.210;2022-12-16T09:53:40;26.13;;;10.20;;
6414;SDS011;3240;48.790;9.210;2022-12-16T09:56:16;16.63;;;8.83;;
6414;SDS011;3240;48.790;9.210;2022-12-16T09:58:51;16.20;;;9.20;;
6414;SDS011;3240;48.790;9.210;2022-12-16T10:01:24;13.70;;;8.07;;
6414;SDS011;3240;48.790;9.210;2022-12-16T10:03:58;16.33;;;8.60;;
6414;SDS011;3240;48.790;9.210;2022-12-16T10:06:37;20.60;;;9.00;;
6414;SDS011;3240;48.790;9.210;2022-12-16T10:09:16;17.93;;;9.07;;
6414;SDS011;3240;48.790;9.210;2022-12-16T10:14:39;17.23;;;8.90;;
6414;SDS011;3240;48.790;9.210;2022-12-16T10:17:12;19.97;;;8.77;;
6414;SDS011;3240;48.790;9.210;2022-12-16T10:19:48;16.03;;;9.30;;
6414;SDS011;3240;48.790;9.210;2022-12-16T10:22:26;16.70;;;8.60;;
6414;SDS011;3240;48.790;9.210;2022-12-16T10:25:00;16.67;;;8.70;;
6414;SDS011;3240;48.790;9.210;2022-12-16T10:27:45;16.73;;;9.20;;
6414;SDS011;3240;48.790;9.210;2022-12-16T10:30:18;17.30;;;8.87;;
6414;SDS011;3240;48.790;9.210;2022-12-16T10:32:52;15.70;;;8.37;;
6414;SDS011;3240;48.790;9.210;2022-12-16T10:35:28;17.97;;;9.10;;
6414;SDS011;3240;48.790;9.210;2022-12-16T10:38:20;23.27;;;9.00;;
6414;SDS011;3240;48.790;9.210;2022-12-16T10:40:55;15.90;;;7.83;;
6414;SDS011;3240;48.790;9.210;2022-12-16T10:43:33;15.00;;;8.17;;
6414;SDS011;3240;48.790;9.210;2022-12-16T10:46:05;16.20;;;8.33;;
6414;SDS011;3240;48.790;9.210;2022-12-16T10:48:38;21.43;;;8.63;;
6414;SDS011;3240;48.790;9.210;2022-12-16T10:51:13;17.10;;;8.73;;
6414;SDS011;3240;48.790;9.210;2022-12-16T10:53:47;20.00;;;9.60;;
6414;SDS011;3240;48.790;9.210;2022-12-16T10:56:31;16.37;;;8.63;;
6414;SDS011;3240;48.790;9.210;2022-12-16T10:58:59;17.13;;;8.17;;
6414;SDS011;3240;48.790;9.210;2022-12-16T11:01:32;13.60;;;8.03;;
6414;SDS011;3240;48.790;9.210;2022-12-16T11:04:38;17.97;;;8.27;;
6414;SDS011;3240;48.790;9.210;2022-12-16T11:06:56;17.30;;;8.60;;
6414;SDS011;3240;48.790;9.210;2022-12-16T11:09:31;14.37;;;6.80;;
6414;SDS011;3240;48.790;9.210;2022-12-16T11:12:13;17.13;;;8.10;;
6414;SDS011;3240;48.790;9.210;2022-12-16T11:14:51;17.08;;;9.80;;
6414;SDS011;3240;48.790;9.210;2022-12-16T11:17:22;16.07;;;8.80;;
6414;SDS011;3240;48.790;9.210;2022-12-16T11:22:36;17.93;;;8.53;;
6414;SDS011;3240;48.790;9.210;2022-12-16T11:25:14;14.57;;;8.20;;
6414;SDS011;3240;48.790;9.210;2022-12-16T11:27:46;17.83;;;8.93;;
6414;SDS011;3240;48.790;9.210;2022-12-16T11:30:21;16.67;;;8.57;;
6414;SDS011;3240;48.790;9.210;2022-12-16T11:32:54;20.17;;;8.37;;
6414;SDS011;3240;48.790;9.210;2022-12-16T11:35:29;17.43;;;8.23;;
6414;SDS011;3240;48.790;9.210;2022-12-16T11:38:03;15.07;;;7.77;;
6414;SDS011;3240;48.790;9.210;2022-12-16T11:40:36;16.83;;;8.13;;
6414;SDS011;3240;48.790;9.210;2022-12-16T11:43:11;17.00;;;8.33;;
6414;SDS011;3240;48.790;9.210;2022-12-16T11:45:44;16.07;;;8.40;;
6414;SDS011;3240;48.790;9.210;2022-12-16T11:48:30;18.80;;;9.13;;
6414;SDS011;3240;48.790;9.210;2022-12-16T11:51:03;12.73;;;7.40;;
6414;SDS011;3240;48.790;9.210;2022-12-16T11:53:46;15.00;;;8.43;;
6414;SDS011;3240;48.790;9.210;2022-12-16T11:56:22;14.53;;;8.20;;
6414;SDS011;3240;48.790;9.210;2022-12-16T11:58:55;14.70;;;8.63;;
6414;SDS011;3240;48.790;9.210;2022-12-16T12:01:34;34.27;;;17.87;;
6414;SDS011;3240;48.790;9.210;2022-12-16T12:04:06;15.10;;;8.20;;
6414;SDS011;3240;48.790;9.210;2022-12-16T12:06:47;24.00;;;9.80;;
6414;SDS011;3240;48.790;9.210;2022-12-16T12:09:16;17.33;;;8.73;;
6414;SDS011;3240;48.790;9.210;2022-12-16T12:11:50;14.70;;;7.83;;
6414;SDS011;3240;48.790;9.210;2022-12-16T12:14:28;17.43;;;8.23;;
6414;SDS011;3240;48.790;9.210;2022-12-16T12:17:04;15.20;;;8.60;;
6414;SDS011;3240;48.790;9.210;2022-12-16T12:19:57;14.40;;;7.87;;
6414;SDS011;3240;48.790;9.210;2022-12-16T12:22:31;17.57;;;8.57;;
6414;SDS011;3240;48.790;9.210;2022-12-16T12:25:09;18.47;;;8.60;;
6414;SDS011;3240;48.790;9.210;2022-12-16T12:27:44;17.30;;;8.82;;
6414;SDS011;3240;48.790;9.210;2022-12-16T12:30:17;18.10;;;8.33;;
6414;SDS011;3240;48.790;9.210;2022-12-16T12:38:29;18.80;;;7.33;;
6414;SDS011;3240;48.790;9.210;2022-12-16T12:43:53;13.80;;;7.43;;
6414;SDS011;3240;48.790;9.210;2022-12-16T12:46:27;14.90;;;7.80;;
6414;SDS011;3240;48.790;9.210;2022-12-16T12:49:04;14.37;;;7.10;;
6414;SDS011;3240;48.790;9.210;2022-12-16T12:51:54;15.83;;;7.47;;
6414;SDS011;3240;48.790;9.210;2022-12-16T12:57:18;13.33;;;6.77;;
6414;SDS011;3240;48.790;9.210;2022-12-16T12:59:53;14.13;;;7.90;;
6414;SDS011;3240;48.790;9.210;2022-12-16T13:02:26;15.53;;;7.50;;
6414;SDS011;3240;48.790;9.210;2022-12-16T13:05:15;12.93;;;6.87;;
6414;SDS011;3240;48.790;9.210;2022-12-16T13:07:49;14.27;;;7.50;;
6414;SDS011;3240;48.790;9.210;2022-12-16T13:15:38;15.03;;;7.53;;
6414;SDS011;3240;48.790;9.210;2022-12-16T13:18:17;15.07;;;7.80;;
6414;SDS011;3240;48.790;9.210;2022-12-16T13:20:47;20.93;;;8.70;;
6414;SDS011;3240;48.790;9.210;2022-12-16T13:23:30;14.27;;;7.63;;
6414;SDS011;3240;48.790;9.210;2022-12-16T13:26:03;16.23;;;8.13;;
6414;SDS011;3240;48.790;9.210;2022-12-16T13:28:38;19.10;;;8.00;;
6414;SDS011;3240;48.790;9.210;2022-12-16T13:31:11;15.37;;;8.33;;
6414;SDS011;3240;48.790;9.210;2022-12-16T13:33:49;15.60;;;8.00;;
6414;SDS011;3240;48.790;9.210;2022-12-16T13:36:19;15.63;;;7.87;;
6414;SDS011;3240;48.790;9.210;2022-12-16T13:38:54;16.70;;;8.70;;
6414;SDS011;3240;48.790;9.210;2022-12-16T13:41:46;16.20;;;8.40;;
6414;SDS011;3240;48.790;9.210;2022-12-16T13:46:57;17.13;;;8.77;;
6414;SDS011;3240;48.790;9.210;2022-12-16T13:49:39;21.17;;;9.00;;
6414;SDS011;3240;48.790;9.210;2022-12-16T13:52:14;17.20;;;8.60;;
6414;SDS011;3240;48.790;9.210;2022-12-16T13:54:48;15.77;;;8.47;;
6414;SDS011;3240;48.790;9.210;2022-12-16T13:57:21;15.73;;;7.90;;
6414;SDS011;3240;48.790;9.210;2022-12-16T13:59:55;17.60;;;8.40;;
6414;SDS011;3240;48.790;9.210;2022-12-16T14:02:30;16.13;;;8.00;;
6414;SDS011;3240;48.790;9.210;2022-12-16T14:05:03;16.30;;;7.97;;
6414;SDS011;3240;48.790;9.210;2022-12-16T14:07:38;19.53;;;8.20;;
6414;SDS011;3240;48.790;9.210;2022-12-16T14:12:58;18.23;;;8.53;;
6414;SDS011;3240;48.790;9.210;2022-12-16T14:18:13;15.63;;;8.53;;
6414;SDS011;3240;48.790;9.210;2022-12-16T14:20:48;15.10;;;8.10;;
6414;SDS011;3240;48.790;9.210;2022-12-16T14:23:27;19.13;;;8.83;;
6414;SDS011;3240;48.790;9.210;2022-12-16T14:25:58;18.60;;;9.17;;
6414;SDS011;3240;48.790;9.210;2022-12-16T14:28:34;13.97;;;7.63;;
6414;SDS011;3240;48.790;9.210;2022-12-16T14:31:14;14.70;;;7.57;;
6414;SDS011;3240;48.790;9.210;2022-12-16T14:33:50;17.13;;;8.23;;
6414;SDS011;3240;48.790;9.210;2022-12-16T14:36:22;14.90;;;8.53;;
6414;SDS011;3240;48.790;9.210;2022-12-16T14:38:55;21.53;;;8.97;;
6414;SDS011;3240;48.790;9.210;2022-12-16T14:41:29;20.27;;;8.47;;
6414;SDS011;3240;48.790;9.210;2022-12-16T14:44:04;19.47;;;9.07;;
6414;SDS011;3240;48.790;9.210;2022-12-16T14:46:37;14.73;;;9.57;;
6414;SDS011;3240;48.790;9.210;2022-12-16T14:49:21;16.63;;;8.00;;
6414;SDS011;3240;48.790;9.210;2022-12-16T14:51:55;17.30;;;8.13;;
6414;SDS011;3240;48.790;9.210;2022-12-16T14:54:34;15.37;;;8.03;;
6414;SDS011;3240;48.790;9.210;2022-12-16T14:57:12;15.90;;;7.73;;
6414;SDS011;3240;48.790;9.210;2022-12-16T14:59:45;18.77;;;8.20;;
6414;SDS011;3240;48.790;9.210;2022-12-16T15:02:24;18.00;;;8.10;;
6414;SDS011;3240;48.790;9.210;2022-12-16T15:04:54;18.13;;;8.50;;
6414;SDS011;3240;48.790;9.210;2022-12-16T15:07:41;18.17;;;8.63;;
6414;SDS011;3240;48.790;9.210;2022-12-16T15:10:30;14.00;;;7.73;;
6414;SDS011;3240;48.790;9.210;2022-12-16T15:13:04;17.37;;;8.40;;
6414;SDS011;3240;48.790;9.210;2022-12-16T15:15:42;15.10;;;7.63;;
6414;SDS011;3240;48.790;9.210;2022-12-16T15:18:18;19.00;;;8.20;;
6414;SDS011;3240;48.790;9.210;2022-12-16T15:20:52;15.97;;;8.77;;
6414;SDS011;3240;48.790;9.210;2022-12-16T15:23:27;16.73;;;8.67;;
6414;SDS011;3240;48.790;9.210;2022-12-16T15:26:00;16.63;;;8.60;;
6414;SDS011;3240;48.790;9.210;2022-12-16T15:28:36;16.33;;;8.00;;
6414;SDS011;3240;48.790;9.210;2022-12-16T15:31:11;15.40;;;7.80;;
6414;SDS011;3240;48.790;9.210;2022-12-16T15:33:45;19.80;;;7.83;;
6414;SDS011;3240;48.790;9.210;2022-12-16T15:36:29;12.63;;;7.80;;
6414;SDS011;3240;48.790;9.210;2022-12-16T15:41:45;16.67;;;8.20;;
6414;SDS011;3240;48.790;9.210;2022-12-16T15:44:18;14.03;;;7.40;;
6414;SDS011;3240;48.790;9.210;2022-12-16T15:46:52;15.83;;;7.87;;
6414;SDS011;3240;48.790;9.210;2022-12-16T15:49:29;15.97;;;7.97;;
6414;SDS011;3240;48.790;9.210;2022-12-16T15:52:01;14.20;;;7.67;;
6414;SDS011;3240;48.790;9.210;2022-12-16T15:54:50;15.50;;;8.10;;
6414;SDS011;3240;48.790;9.210;2022-12-16T15:57:25;14.73;;;7.47;;
6414;SDS011;3240;48.790;9.210;2022-12-16T15:59:59;16.30;;;8.23;;
6414;SDS011;3240;48.790;9.210;2022-12-16T16:02:33;16.17;;;8.63;;
6414;SDS011;3240;48.790;9.210;2022-12-16T16:05:11;18.93;;;9.10;;
6414;SDS011;3240;48.790;9.210;2022-12-16T16:07:44;18.90;;;8.80;;
6414;SDS011;3240;48.790;9.210;2022-12-16T16:10:19;16.33;;;8.90;;
6414;SDS011;3240;48.790;9.210;2022-12-16T16:12:52;19.73;;;8.30;;
6414;SDS011;3240;48.790;9.210;2022-12-16T16:15:26;15.73;;;8.70;;